sensor_id;sensor_type;location;lat;lon;timestamp;P1;durP1;ratioP1;P2;durP2;ratioP2
18905;SDS011;9585;51.018;4.282;2023-12-28T00:00:04;2.35;;;2.05;;
18905;SDS011;9585;51.018;4.282;2023-12-28T00:02:33;3.45;;;2.25;;
18905;SDS011;9585;51.018;4.282;2023-12-28T00:05:02;4.85;;;2.40;;
18905;SDS011;9585;51.018;4.282;2023-12-28T00:07:30;2.30;;;2.00;;
18905;SDS011;9585;51.018;4.282;2023-12-28T00:09:58;3.35;;;2.20;;
18905;SDS011;9585;51.018;4.282;2023-12-28T00:12:27;4.47;;;2.22;;
18905;SDS011;9585;51.018;4.282;2023-12-28T00:14:55;2.83;;;1.88;;
18905;SDS011;9585;51.018;4.282;2023-12-28T00:17:23;2.78;;;1.85;;
18905;SDS011;9585;51.018;4.282;2023-12-28T00:19:51;2.47;;;1.90;;
18905;SDS011;9585;51.018;4.282;2023-12-28T00:22:21;3.03;;;1.90;;
18905;SDS011;9585;51.018;4.282;2023-12-28T00:24:49;3.15;;;2.15;;
18905;SDS011;9585;51.018;4.282;2023-12-28T00:27:17;2.80;;;2.13;;
18905;SDS011;9585;51.018;4.282;2023-12-28T00:29:44;4.63;;;2.22;;
18905;SDS011;9585;51.018;4.282;2023-12-28T00:32:12;4.35;;;2.30;;
18905;SDS011;9585;51.018;4.282;2023-12-28T00:34:40;2.38;;;1.95;;
18905;SDS011;9585;51.018;4.282;2023-12-28T00:37:07;2.55;;;2.20;;
18905;SDS011;9585;51.018;4.282;2023-12-28T00:39:37;3.70;;;2.10;;
18905;SDS011;9585;51.018;4.282;2023-12-28T00:42:06;3.83;;;2.10;;
18905;SDS011;9585;51.018;4.282;2023-12-28T00:44:34;4.50;;;2.10;;
18905;SDS011;9585;51.018;4.282;2023-12-28T00:47:01;2.53;;;1.88;;
18905;SDS011;9585;51.018;4.282;2023-12-28T00:49:30;3.60;;;2.10;;
18905;SDS011;9585;51.018;4.282;2023-12-28T00:51:57;4.97;;;2.15;;
18905;SDS011;9585;51.018;4.282;2023-12-28T00:54:25;3.30;;;2.17;;
18905;SDS011;9585;51.018;4.282;2023-12-28T00:56:54;3.80;;;2.28;;
18905;SDS011;9585;51.018;4.282;2023-12-28T00:59:22;4.13;;;2.28;;
18905;SDS011;9585;51.018;4.282;2023-12-28T01:01:50;4.82;;;2.25;;
18905;SDS011;9585;51.018;4.282;2023-12-28T01:04:17;3.05;;;2.13;;
18905;SDS011;9585;51.018;4.282;2023-12-28T01:06:48;3.75;;;1.95;;
18905;SDS011;9585;51.018;4.282;2023-12-28T01:09:16;4.10;;;2.10;;
18905;SDS011;9585;51.018;4.282;2023-12-28T01:11:43;3.95;;;1.92;;
18905;SDS011;9585;51.018;4.282;2023-12-28T01:14:13;3.17;;;2.20;;
18905;SDS011;9585;51.018;4.282;2023-12-28T01:16:40;4.68;;;2.30;;
18905;SDS011;9585;51.018;4.282;2023-12-28T01:19:11;3.33;;;2.25;;
18905;SDS011;9585;51.018;4.282;2023-12-28T01:21:39;4.13;;;2.30;;
18905;SDS011;9585;51.018;4.282;2023-12-28T01:24:06;4.43;;;2.47;;
18905;SDS011;9585;51.018;4.282;2023-12-28T01:26:34;2.35;;;2.10;;
18905;SDS011;9585;51.018;4.282;2023-12-28T01:29:03;3.28;;;2.15;;
18905;SDS011;9585;51.018;4.282;2023-12-28T01:31:32;2.70;;;2.30;;
18905;SDS011;9585;51.018;4.282;2023-12-28T01:34:00;3.38;;;2.15;;
18905;SDS011;9585;51.018;4.282;2023-12-28T01:36:28;5.43;;;2.22;;
18905;SDS011;9585;51.018;4.282;2023-12-28T01:38:56;4.63;;;2.40;;
18905;SDS011;9585;51.018;4.282;2023-12-28T01:41:23;3.83;;;2.35;;
18905;SDS011;9585;51.018;4.282;2023-12-28T01:43:51;3.17;;;2.05;;
18905;SDS011;9585;51.018;4.282;2023-12-28T01:46:21;3.65;;;2.00;;
18905;SDS011;9585;51.018;4.282;2023-12-28T01:48:50;5.72;;;2.30;;
18905;SDS011;9585;51.018;4.282;2023-12-28T01:51:18;2.55;;;1.90;;
18905;SDS011;9585;51.018;4.282;2023-12-28T01:53:47;3.17;;;2.42;;
18905;SDS011;9585;51.018;4.282;2023-12-28T01:56:17;3.17;;;2.25;;
18905;SDS011;9585;51.018;4.282;2023-12-28T01:58:46;3.80;;;2.30;;
18905;SDS011;9585;51.018;4.282;2023-12-28T02:01:17;5.82;;;2.10;;
18905;SDS011;9585;51.018;4.282;2023-12-28T02:03:45;4.18;;;2.10;;
18905;SDS011;9585;51.018;4.282;2023-12-28T02:06:15;4.32;;;2.42;;
18905;SDS011;9585;51.018;4.282;2023-12-28T02:08:43;3.70;;;1.90;;
18905;SDS011;9585;51.018;4.282;2023-12-28T02:11:10;3.20;;;2.45;;
18905;SDS011;9585;51.018;4.282;2023-12-28T02:13:38;4.13;;;1.95;;
18905;SDS011;9585;51.018;4.282;2023-12-28T02:16:08;4.30;;;2.17;;
18905;SDS011;9585;51.018;4.282;2023-12-28T02:18:42;3.28;;;2.20;;
18905;SDS011;9585;51.018;4.282;2023-12-28T02:21:11;2.67;;;2.20;;
18905;SDS011;9585;51.018;4.282;2023-12-28T02:23:47;4.20;;;2.40;;
18905;SDS011;9585;51.018;4.282;2023-12-28T02:26:18;3.60;;;2.00;;
18905;SDS011;9585;51.018;4.282;2023-12-28T02:28:46;4.53;;;2.22;;
18905;SDS011;9585;51.018;4.282;2023-12-28T02:31:19;3.72;;;2.20;;
18905;SDS011;9585;51.018;4.282;2023-12-28T02:33:54;6.47;;;2.38;;
18905;SDS011;9585;51.018;4.282;2023-12-28T02:36:32;2.97;;;1.88;;
18905;SDS011;9585;51.018;4.282;2023-12-28T02:39:03;3.70;;;1.75;;
18905;SDS011;9585;51.018;4.282;2023-12-28T02:41:34;6.22;;;2.20;;
18905;SDS011;9585;51.018;4.282;2023-12-28T02:44:02;3.13;;;1.77;;
18905;SDS011;9585;51.018;4.282;2023-12-28T02:46:30;4.30;;;2.30;;
18905;SDS011;9585;51.018;4.282;2023-12-28T02:48:58;3.97;;;1.85;;
18905;SDS011;9585;51.018;4.282;2023-12-28T02:51:25;5.05;;;2.50;;
18905;SDS011;9585;51.018;4.282;2023-12-28T02:53:53;3.08;;;1.80;;
18905;SDS011;9585;51.018;4.282;2023-12-28T02:56:21;4.10;;;1.98;;
18905;SDS011;9585;51.018;4.282;2023-12-28T02:58:51;2.78;;;1.85;;
18905;SDS011;9585;51.018;4.282;2023-12-28T03:01:21;4.20;;;1.95;;
18905;SDS011;9585;51.018;4.282;2023-12-28T03:03:49;3.40;;;1.85;;
18905;SDS011;9585;51.018;4.282;2023-12-28T03:06:17;4.65;;;1.90;;
18905;SDS011;9585;51.018;4.282;2023-12-28T03:08:45;4.38;;;2.10;;
18905;SDS011;9585;51.018;4.282;2023-12-28T03:11:12;3.75;;;2.05;;
18905;SDS011;9585;51.018;4.282;2023-12-28T03:13:41;5.30;;;1.98;;
18905;SDS011;9585;51.018;4.282;2023-12-28T03:16:10;5.72;;;2.40;;
18905;SDS011;9585;51.018;4.282;2023-12-28T03:18:39;2.95;;;1.98;;
18905;SDS011;9585;51.018;4.282;2023-12-28T03:21:07;4.13;;;2.20;;
18905;SDS011;9585;51.018;4.282;2023-12-28T03:23:35;4.22;;;2.28;;
18905;SDS011;9585;51.018;4.282;2023-12-28T03:26:02;3.28;;;1.88;;
18905;SDS011;9585;51.018;4.282;2023-12-28T03:28:30;4.68;;;2.33;;
18905;SDS011;9585;51.018;4.282;2023-12-28T03:30:58;4.32;;;2.20;;
18905;SDS011;9585;51.018;4.282;2023-12-28T03:33:30;5.82;;;2.10;;
18905;SDS011;9585;51.018;4.282;2023-12-28T03:35:58;5.07;;;1.95;;
18905;SDS011;9585;51.018;4.282;2023-12-28T03:38:27;4.30;;;1.92;;
18905;SDS011;9585;51.018;4.282;2023-12-28T03:40:55;4.18;;;2.10;;
18905;SDS011;9585;51.018;4.282;2023-12-28T03:43:23;6.80;;;2.00;;
18905;SDS011;9585;51.018;4.282;2023-12-28T03:45:51;4.57;;;1.70;;
18905;SDS011;9585;51.018;4.282;2023-12-28T03:48:18;6.53;;;2.03;;
18905;SDS011;9585;51.018;4.282;2023-12-28T03:50:48;4.03;;;1.75;;
18905;SDS011;9585;51.018;4.282;2023-12-28T03:53:16;3.70;;;1.98;;
18905;SDS011;9585;51.018;4.282;2023-12-28T03:55:43;3.50;;;1.60;;
18905;SDS011;9585;51.018;4.282;2023-12-28T03:58:11;5.20;;;2.30;;
18905;SDS011;9585;51.018;4.282;2023-12-28T04:00:39;4.25;;;1.75;;
18905;SDS011;9585;51.018;4.282;2023-12-28T04:03:07;3.47;;;1.85;;
18905;SDS011;9585;51.018;4.282;2023-12-28T04:05:35;4.13;;;1.80;;
18905;SDS011;9585;51.018;4.282;2023-12-28T04:08:05;6.25;;;2.03;;
18905;SDS011;9585;51.018;4.282;2023-12-28T04:10:33;4.03;;;1.90;;
18905;SDS011;9585;51.018;4.282;2023-12-28T04:13:03;5.60;;;2.08;;
18905;SDS011;9585;51.018;4.282;2023-12-28T04:15:30;3.20;;;1.80;;
18905;SDS011;9585;51.018;4.282;2023-12-28T04:17:58;3.78;;;1.70;;
18905;SDS011;9585;51.018;4.282;2023-12-28T04:20:26;6.07;;;1.98;;
18905;SDS011;9585;51.018;4.282;2023-12-28T04:22:53;7.25;;;2.42;;
18905;SDS011;9585;51.018;4.282;2023-12-28T04:25:23;4.80;;;1.80;;
18905;SDS011;9585;51.018;4.282;2023-12-28T04:27:51;4.90;;;1.75;;
18905;SDS011;9585;51.018;4.282;2023-12-28T04:30:19;3.33;;;1.95;;
18905;SDS011;9585;51.018;4.282;2023-12-28T04:32:46;6.03;;;1.88;;
18905;SDS011;9585;51.018;4.282;2023-12-28T04:35:14;6.82;;;2.08;;
18905;SDS011;9585;51.018;4.282;2023-12-28T04:37:45;4.53;;;1.88;;
18905;SDS011;9585;51.018;4.282;2023-12-28T04:40:13;4.72;;;1.55;;
18905;SDS011;9585;51.018;4.282;2023-12-28T04:42:44;4.88;;;1.70;;
18905;SDS011;9585;51.018;4.282;2023-12-28T04:45:11;6.95;;;1.83;;
18905;SDS011;9585;51.018;4.282;2023-12-28T04:47:39;5.45;;;1.70;;
18905;SDS011;9585;51.018;4.282;2023-12-28T04:50:09;5.82;;;1.88;;
18905;SDS011;9585;51.018;4.282;2023-12-28T04:52:38;6.20;;;1.90;;
18905;SDS011;9585;51.018;4.282;2023-12-28T04:55:06;6.70;;;1.77;;
18905;SDS011;9585;51.018;4.282;2023-12-28T04:57:34;5.35;;;1.67;;
18905;SDS011;9585;51.018;4.282;2023-12-28T05:00:04;6.68;;;1.73;;
18905;SDS011;9585;51.018;4.282;2023-12-28T05:02:33;5.85;;;1.60;;
18905;SDS011;9585;51.018;4.282;2023-12-28T05:05:01;7.05;;;2.17;;
18905;SDS011;9585;51.018;4.282;2023-12-28T05:07:29;7.35;;;2.17;;
18905;SDS011;9585;51.018;4.282;2023-12-28T05:09:56;4.07;;;1.98;;
18905;SDS011;9585;51.018;4.282;2023-12-28T05:12:24;8.02;;;2.00;;
18905;SDS011;9585;51.018;4.282;2023-12-28T05:14:54;8.43;;;1.73;;
18905;SDS011;9585;51.018;4.282;2023-12-28T05:17:23;6.57;;;2.03;;
18905;SDS011;9585;51.018;4.282;2023-12-28T05:19:51;5.30;;;1.60;;
18905;SDS011;9585;51.018;4.282;2023-12-28T05:22:18;7.97;;;1.98;;
18905;SDS011;9585;51.018;4.282;2023-12-28T05:24:46;6.25;;;2.00;;
18905;SDS011;9585;51.018;4.282;2023-12-28T05:27:14;8.00;;;1.70;;
18905;SDS011;9585;51.018;4.282;2023-12-28T05:29:42;6.18;;;1.80;;
18905;SDS011;9585;51.018;4.282;2023-12-28T05:32:10;4.03;;;1.80;;
18905;SDS011;9585;51.018;4.282;2023-12-28T05:34:39;6.65;;;2.00;;
18905;SDS011;9585;51.018;4.282;2023-12-28T05:37:07;7.47;;;2.00;;
18905;SDS011;9585;51.018;4.282;2023-12-28T05:39:34;7.22;;;2.10;;
18905;SDS011;9585;51.018;4.282;2023-12-28T05:42:02;8.10;;;1.95;;
18905;SDS011;9585;51.018;4.282;2023-12-28T05:44:30;6.18;;;2.00;;
18905;SDS011;9585;51.018;4.282;2023-12-28T05:46:58;7.05;;;2.20;;
18905;SDS011;9585;51.018;4.282;2023-12-28T05:49:25;8.73;;;1.88;;
18905;SDS011;9585;51.018;4.282;2023-12-28T05:51:55;8.23;;;2.20;;
18905;SDS011;9585;51.018;4.282;2023-12-28T05:54:23;5.82;;;1.83;;
18905;SDS011;9585;51.018;4.282;2023-12-28T05:56:51;4.85;;;1.75;;
18905;SDS011;9585;51.018;4.282;2023-12-28T05:59:22;9.02;;;2.00;;
18905;SDS011;9585;51.018;4.282;2023-12-28T06:01:51;6.07;;;2.10;;
18905;SDS011;9585;51.018;4.282;2023-12-28T06:04:19;7.18;;;2.08;;
18905;SDS011;9585;51.018;4.282;2023-12-28T06:06:46;8.32;;;1.85;;
18905;SDS011;9585;51.018;4.282;2023-12-28T06:09:16;6.88;;;2.00;;
18905;SDS011;9585;51.018;4.282;2023-12-28T06:11:43;8.00;;;1.73;;
18905;SDS011;9585;51.018;4.282;2023-12-28T06:14:11;7.95;;;2.15;;
18905;SDS011;9585;51.018;4.282;2023-12-28T06:16:39;6.32;;;1.73;;
18905;SDS011;9585;51.018;4.282;2023-12-28T06:19:06;6.82;;;2.13;;
18905;SDS011;9585;51.018;4.282;2023-12-28T06:21:35;6.60;;;1.75;;
18905;SDS011;9585;51.018;4.282;2023-12-28T06:24:03;10.00;;;2.25;;
18905;SDS011;9585;51.018;4.282;2023-12-28T06:26:33;6.50;;;1.88;;
18905;SDS011;9585;51.018;4.282;2023-12-28T06:29:05;7.53;;;1.88;;
18905;SDS011;9585;51.018;4.282;2023-12-28T06:31:32;7.43;;;2.00;;
18905;SDS011;9585;51.018;4.282;2023-12-28T06:34:01;7.47;;;1.90;;
18905;SDS011;9585;51.018;4.282;2023-12-28T06:36:29;9.73;;;2.28;;
18905;SDS011;9585;51.018;4.282;2023-12-28T06:38:57;8.50;;;1.73;;
18905;SDS011;9585;51.018;4.282;2023-12-28T06:41:25;7.63;;;1.85;;
18905;SDS011;9585;51.018;4.282;2023-12-28T06:43:55;9.70;;;2.10;;
18905;SDS011;9585;51.018;4.282;2023-12-28T06:46:22;7.88;;;2.05;;
18905;SDS011;9585;51.018;4.282;2023-12-28T06:48:50;9.10;;;1.95;;
18905;SDS011;9585;51.018;4.282;2023-12-28T06:51:18;7.15;;;1.50;;
18905;SDS011;9585;51.018;4.282;2023-12-28T06:53:47;9.05;;;1.90;;
18905;SDS011;9585;51.018;4.282;2023-12-28T06:56:15;7.88;;;2.05;;
18905;SDS011;9585;51.018;4.282;2023-12-28T06:58:42;9.88;;;1.90;;
18905;SDS011;9585;51.018;4.282;2023-12-28T07:01:12;10.43;;;1.95;;
18905;SDS011;9585;51.018;4.282;2023-12-28T07:03:40;10.45;;;2.47;;
18905;SDS011;9585;51.018;4.282;2023-12-28T07:06:07;7.40;;;1.77;;
18905;SDS011;9585;51.018;4.282;2023-12-28T07:08:35;9.48;;;1.77;;
18905;SDS011;9585;51.018;4.282;2023-12-28T07:11:03;9.40;;;2.00;;
18905;SDS011;9585;51.018;4.282;2023-12-28T07:13:31;9.63;;;1.85;;
18905;SDS011;9585;51.018;4.282;2023-12-28T07:15:59;11.55;;;2.08;;
18905;SDS011;9585;51.018;4.282;2023-12-28T07:18:28;8.23;;;1.80;;
18905;SDS011;9585;51.018;4.282;2023-12-28T07:20:58;7.75;;;1.85;;
18905;SDS011;9585;51.018;4.282;2023-12-28T07:23:26;8.27;;;2.00;;
18905;SDS011;9585;51.018;4.282;2023-12-28T07:25:53;8.40;;;2.05;;
18905;SDS011;9585;51.018;4.282;2023-12-28T07:28:21;7.05;;;1.90;;
18905;SDS011;9585;51.018;4.282;2023-12-28T07:30:49;10.57;;;2.10;;
18905;SDS011;9585;51.018;4.282;2023-12-28T07:33:17;9.25;;;1.80;;
18905;SDS011;9585;51.018;4.282;2023-12-28T07:35:46;9.43;;;1.80;;
18905;SDS011;9585;51.018;4.282;2023-12-28T07:38:14;7.90;;;1.90;;
18905;SDS011;9585;51.018;4.282;2023-12-28T07:40:41;9.35;;;2.35;;
18905;SDS011;9585;51.018;4.282;2023-12-28T07:43:09;8.23;;;1.67;;
18905;SDS011;9585;51.018;4.282;2023-12-28T07:45:37;8.23;;;1.92;;
18905;SDS011;9585;51.018;4.282;2023-12-28T07:48:05;8.77;;;2.03;;
18905;SDS011;9585;51.018;4.282;2023-12-28T07:50:33;10.43;;;1.80;;
18905;SDS011;9585;51.018;4.282;2023-12-28T07:53:02;8.75;;;2.10;;
18905;SDS011;9585;51.018;4.282;2023-12-28T07:55:30;6.55;;;1.60;;
18905;SDS011;9585;51.018;4.282;2023-12-28T07:57:58;7.47;;;1.77;;
18905;SDS011;9585;51.018;4.282;2023-12-28T08:00:25;10.85;;;2.05;;
18905;SDS011;9585;51.018;4.282;2023-12-28T08:02:53;11.32;;;2.30;;
18905;SDS011;9585;51.018;4.282;2023-12-28T08:05:21;9.88;;;2.00;;
18905;SDS011;9585;51.018;4.282;2023-12-28T08:07:49;9.65;;;2.10;;
18905;SDS011;9585;51.018;4.282;2023-12-28T08:10:18;8.93;;;2.13;;
18905;SDS011;9585;51.018;4.282;2023-12-28T08:12:46;9.35;;;2.10;;
18905;SDS011;9585;51.018;4.282;2023-12-28T08:15:14;6.80;;;1.67;;
18905;SDS011;9585;51.018;4.282;2023-12-28T08:17:41;11.52;;;2.33;;
18905;SDS011;9585;51.018;4.282;2023-12-28T08:20:09;10.50;;;1.95;;
18905;SDS011;9585;51.018;4.282;2023-12-28T08:22:37;11.63;;;2.20;;
18905;SDS011;9585;51.018;4.282;2023-12-28T08:25:05;10.02;;;1.92;;
18905;SDS011;9585;51.018;4.282;2023-12-28T08:27:34;10.13;;;2.40;;
18905;SDS011;9585;51.018;4.282;2023-12-28T08:30:02;11.88;;;2.58;;
18905;SDS011;9585;51.018;4.282;2023-12-28T08:32:32;8.65;;;2.17;;
18905;SDS011;9585;51.018;4.282;2023-12-28T08:34:59;8.95;;;1.63;;
18905;SDS011;9585;51.018;4.282;2023-12-28T08:37:28;11.18;;;2.40;;
18905;SDS011;9585;51.018;4.282;2023-12-28T08:39:55;9.18;;;1.92;;
18905;SDS011;9585;51.018;4.282;2023-12-28T08:42:23;9.20;;;1.75;;
18905;SDS011;9585;51.018;4.282;2023-12-28T08:44:53;8.55;;;1.73;;
18905;SDS011;9585;51.018;4.282;2023-12-28T08:47:20;7.60;;;1.75;;
18905;SDS011;9585;51.018;4.282;2023-12-28T08:49:48;9.02;;;1.67;;
18905;SDS011;9585;51.018;4.282;2023-12-28T08:52:16;10.50;;;1.77;;
18905;SDS011;9585;51.018;4.282;2023-12-28T08:54:44;9.73;;;1.80;;
18905;SDS011;9585;51.018;4.282;2023-12-28T08:57:11;13.38;;;1.95;;
18905;SDS011;9585;51.018;4.282;2023-12-28T08:59:39;11.00;;;2.00;;
18905;SDS011;9585;51.018;4.282;2023-12-28T09:02:09;11.20;;;2.50;;
18905;SDS011;9585;51.018;4.282;2023-12-28T09:04:37;9.23;;;2.10;;
18905;SDS011;9585;51.018;4.282;2023-12-28T09:07:04;13.98;;;2.50;;
18905;SDS011;9585;51.018;4.282;2023-12-28T09:09:32;8.75;;;1.90;;
18905;SDS011;9585;51.018;4.282;2023-12-28T09:12:00;8.70;;;1.80;;
18905;SDS011;9585;51.018;4.282;2023-12-28T09:14:28;11.10;;;1.88;;
18905;SDS011;9585;51.018;4.282;2023-12-28T09:16:56;10.48;;;2.10;;
18905;SDS011;9585;51.018;4.282;2023-12-28T09:19:25;9.80;;;2.35;;
18905;SDS011;9585;51.018;4.282;2023-12-28T09:21:53;9.75;;;1.70;;
18905;SDS011;9585;51.018;4.282;2023-12-28T09:24:20;10.13;;;2.03;;
18905;SDS011;9585;51.018;4.282;2023-12-28T09:26:48;9.77;;;2.25;;
18905;SDS011;9585;51.018;4.282;2023-12-28T09:29:16;7.10;;;1.90;;
18905;SDS011;9585;51.018;4.282;2023-12-28T09:31:45;12.50;;;2.03;;
18905;SDS011;9585;51.018;4.282;2023-12-28T09:34:13;9.52;;;1.90;;
18905;SDS011;9585;51.018;4.282;2023-12-28T09:36:42;10.43;;;2.45;;
18905;SDS011;9585;51.018;4.282;2023-12-28T09:39:10;11.68;;;2.28;;
18905;SDS011;9585;51.018;4.282;2023-12-28T09:41:39;10.48;;;2.42;;
18905;SDS011;9585;51.018;4.282;2023-12-28T09:44:11;11.20;;;1.90;;
18905;SDS011;9585;51.018;4.282;2023-12-28T09:46:41;6.82;;;2.03;;
18905;SDS011;9585;51.018;4.282;2023-12-28T09:49:10;10.27;;;2.33;;
18905;SDS011;9585;51.018;4.282;2023-12-28T09:51:38;11.00;;;2.25;;
18905;SDS011;9585;51.018;4.282;2023-12-28T09:54:07;13.40;;;2.45;;
18905;SDS011;9585;51.018;4.282;2023-12-28T09:56:35;8.65;;;1.90;;
18905;SDS011;9585;51.018;4.282;2023-12-28T09:59:03;9.60;;;2.15;;
18905;SDS011;9585;51.018;4.282;2023-12-28T10:01:32;13.45;;;2.83;;
18905;SDS011;9585;51.018;4.282;2023-12-28T10:04:01;6.80;;;2.03;;
18905;SDS011;9585;51.018;4.282;2023-12-28T10:06:29;10.85;;;1.88;;
18905;SDS011;9585;51.018;4.282;2023-12-28T10:08:57;8.38;;;2.50;;
18905;SDS011;9585;51.018;4.282;2023-12-28T10:11:27;10.38;;;2.25;;
18905;SDS011;9585;51.018;4.282;2023-12-28T10:13:55;11.43;;;2.20;;
18905;SDS011;9585;51.018;4.282;2023-12-28T10:16:23;9.38;;;2.35;;
18905;SDS011;9585;51.018;4.282;2023-12-28T10:18:51;10.35;;;2.10;;
18905;SDS011;9585;51.018;4.282;2023-12-28T10:21:18;9.65;;;2.17;;
18905;SDS011;9585;51.018;4.282;2023-12-28T10:23:46;7.22;;;1.98;;
18905;SDS011;9585;51.018;4.282;2023-12-28T10:26:14;13.25;;;2.28;;
18905;SDS011;9585;51.018;4.282;2023-12-28T10:28:46;12.13;;;2.00;;
18905;SDS011;9585;51.018;4.282;2023-12-28T10:31:14;12.93;;;3.03;;
18905;SDS011;9585;51.018;4.282;2023-12-28T10:33:42;8.77;;;2.25;;
18905;SDS011;9585;51.018;4.282;2023-12-28T10:36:10;11.13;;;1.90;;
18905;SDS011;9585;51.018;4.282;2023-12-28T10:38:41;10.43;;;2.70;;
18905;SDS011;9585;51.018;4.282;2023-12-28T10:41:12;9.35;;;2.20;;
18905;SDS011;9585;51.018;4.282;2023-12-28T10:43:44;10.77;;;2.22;;
18905;SDS011;9585;51.018;4.282;2023-12-28T10:46:24;10.68;;;1.90;;
18905;SDS011;9585;51.018;4.282;2023-12-28T10:48:57;10.02;;;2.45;;
18905;SDS011;9585;51.018;4.282;2023-12-28T10:51:27;10.02;;;2.13;;
18905;SDS011;9585;51.018;4.282;2023-12-28T10:53:58;12.27;;;2.47;;
18905;SDS011;9585;51.018;4.282;2023-12-28T10:56:33;13.68;;;2.35;;
18905;SDS011;9585;51.018;4.282;2023-12-28T10:59:09;7.55;;;2.35;;
18905;SDS011;9585;51.018;4.282;2023-12-28T11:01:44;10.75;;;2.35;;
18905;SDS011;9585;51.018;4.282;2023-12-28T11:04:17;10.00;;;2.53;;
18905;SDS011;9585;51.018;4.282;2023-12-28T11:06:50;10.10;;;2.08;;
18905;SDS011;9585;51.018;4.282;2023-12-28T11:09:20;10.63;;;2.05;;
18905;SDS011;9585;51.018;4.282;2023-12-28T11:11:49;11.00;;;2.00;;
18905;SDS011;9585;51.018;4.282;2023-12-28T11:14:19;10.00;;;1.92;;
18905;SDS011;9585;51.018;4.282;2023-12-28T11:16:48;9.13;;;2.10;;
18905;SDS011;9585;51.018;4.282;2023-12-28T11:19:16;9.27;;;2.22;;
18905;SDS011;9585;51.018;4.282;2023-12-28T11:21:44;8.70;;;2.00;;
18905;SDS011;9585;51.018;4.282;2023-12-28T11:24:12;13.90;;;2.38;;
18905;SDS011;9585;51.018;4.282;2023-12-28T11:26:40;11.63;;;2.17;;
18905;SDS011;9585;51.018;4.282;2023-12-28T11:29:08;12.98;;;2.20;;
18905;SDS011;9585;51.018;4.282;2023-12-28T11:31:37;9.85;;;2.08;;
18905;SDS011;9585;51.018;4.282;2023-12-28T11:34:05;9.73;;;2.50;;
18905;SDS011;9585;51.018;4.282;2023-12-28T11:36:35;10.25;;;2.20;;
18905;SDS011;9585;51.018;4.282;2023-12-28T11:39:06;10.20;;;2.20;;
18905;SDS011;9585;51.018;4.282;2023-12-28T11:41:35;11.82;;;2.13;;
18905;SDS011;9585;51.018;4.282;2023-12-28T11:44:03;11.38;;;2.67;;
18905;SDS011;9585;51.018;4.282;2023-12-28T11:46:32;11.05;;;2.20;;
18905;SDS011;9585;51.018;4.282;2023-12-28T11:49:07;9.35;;;2.42;;
18905;SDS011;9585;51.018;4.282;2023-12-28T11:51:35;11.68;;;2.40;;
18905;SDS011;9585;51.018;4.282;2023-12-28T11:54:05;14.73;;;2.40;;
18905;SDS011;9585;51.018;4.282;2023-12-28T11:56:33;13.30;;;2.40;;
18905;SDS011;9585;51.018;4.282;2023-12-28T11:59:02;7.93;;;2.00;;
18905;SDS011;9585;51.018;4.282;2023-12-28T12:01:29;11.68;;;2.50;;
18905;SDS011;9585;51.018;4.282;2023-12-28T12:03:57;10.60;;;1.95;;
18905;SDS011;9585;51.018;4.282;2023-12-28T12:06:26;9.80;;;1.85;;
18905;SDS011;9585;51.018;4.282;2023-12-28T12:08:54;13.02;;;2.30;;
18905;SDS011;9585;51.018;4.282;2023-12-28T12:11:23;8.77;;;1.85;;
18905;SDS011;9585;51.018;4.282;2023-12-28T12:13:51;10.30;;;2.30;;
18905;SDS011;9585;51.018;4.282;2023-12-28T12:16:20;11.18;;;2.60;;
18905;SDS011;9585;51.018;4.282;2023-12-28T12:18:48;14.20;;;2.95;;
18905;SDS011;9585;51.018;4.282;2023-12-28T12:21:16;9.85;;;2.17;;
18905;SDS011;9585;51.018;4.282;2023-12-28T12:23:46;11.68;;;2.53;;
18905;SDS011;9585;51.018;4.282;2023-12-28T12:26:17;11.98;;;2.92;;
18905;SDS011;9585;51.018;4.282;2023-12-28T12:28:45;10.55;;;2.45;;
18905;SDS011;9585;51.018;4.282;2023-12-28T12:31:13;11.35;;;2.78;;
18905;SDS011;9585;51.018;4.282;2023-12-28T12:33:41;9.55;;;1.88;;
18905;SDS011;9585;51.018;4.282;2023-12-28T12:36:10;12.45;;;2.30;;
18905;SDS011;9585;51.018;4.282;2023-12-28T12:38:38;13.43;;;2.63;;
18905;SDS011;9585;51.018;4.282;2023-12-28T12:41:09;15.02;;;2.50;;
18905;SDS011;9585;51.018;4.282;2023-12-28T12:43:38;13.18;;;2.13;;
18905;SDS011;9585;51.018;4.282;2023-12-28T12:46:07;8.10;;;2.22;;
18905;SDS011;9585;51.018;4.282;2023-12-28T12:48:35;11.52;;;2.03;;
18905;SDS011;9585;51.018;4.282;2023-12-28T12:51:03;8.80;;;1.95;;
18905;SDS011;9585;51.018;4.282;2023-12-28T12:53:34;11.43;;;2.38;;
18905;SDS011;9585;51.018;4.282;2023-12-28T12:56:02;13.50;;;2.03;;
18905;SDS011;9585;51.018;4.282;2023-12-28T12:58:32;10.27;;;2.15;;
18905;SDS011;9585;51.018;4.282;2023-12-28T13:01:01;10.75;;;2.13;;
18905;SDS011;9585;51.018;4.282;2023-12-28T13:03:29;6.32;;;1.85;;
18905;SDS011;9585;51.018;4.282;2023-12-28T13:05:57;16.33;;;2.30;;
18905;SDS011;9585;51.018;4.282;2023-12-28T13:08:24;13.18;;;2.20;;
18905;SDS011;9585;51.018;4.282;2023-12-28T13:10:52;10.93;;;2.17;;
18905;SDS011;9585;51.018;4.282;2023-12-28T13:13:20;10.45;;;2.30;;
18905;SDS011;9585;51.018;4.282;2023-12-28T13:15:49;12.48;;;2.35;;
18905;SDS011;9585;51.018;4.282;2023-12-28T13:18:17;12.25;;;2.35;;
18905;SDS011;9585;51.018;4.282;2023-12-28T13:20:45;9.20;;;2.00;;
18905;SDS011;9585;51.018;4.282;2023-12-28T13:23:13;12.57;;;2.53;;
18905;SDS011;9585;51.018;4.282;2023-12-28T13:25:40;9.85;;;1.95;;
18905;SDS011;9585;51.018;4.282;2023-12-28T13:28:09;9.60;;;2.00;;
18905;SDS011;9585;51.018;4.282;2023-12-28T13:30:37;11.48;;;2.63;;
18905;SDS011;9585;51.018;4.282;2023-12-28T13:33:07;14.77;;;2.88;;
18905;SDS011;9585;51.018;4.282;2023-12-28T13:35:34;10.05;;;2.20;;
18905;SDS011;9585;51.018;4.282;2023-12-28T13:38:02;14.13;;;2.10;;
18905;SDS011;9585;51.018;4.282;2023-12-28T13:40:30;9.82;;;2.10;;
18905;SDS011;9585;51.018;4.282;2023-12-28T13:42:58;10.73;;;2.00;;
18905;SDS011;9585;51.018;4.282;2023-12-28T13:45:25;11.73;;;1.92;;
18905;SDS011;9585;51.018;4.282;2023-12-28T13:47:53;8.93;;;2.42;;
18905;SDS011;9585;51.018;4.282;2023-12-28T13:50:22;8.65;;;2.10;;
18905;SDS011;9585;51.018;4.282;2023-12-28T13:52:49;10.30;;;2.03;;
18905;SDS011;9585;51.018;4.282;2023-12-28T13:55:17;9.88;;;1.98;;
18905;SDS011;9585;51.018;4.282;2023-12-28T13:57:45;9.25;;;2.03;;
18905;SDS011;9585;51.018;4.282;2023-12-28T14:00:13;9.48;;;2.03;;
18905;SDS011;9585;51.018;4.282;2023-12-28T14:02:42;10.80;;;2.15;;
18905;SDS011;9585;51.018;4.282;2023-12-28T14:05:10;12.60;;;2.10;;
18905;SDS011;9585;51.018;4.282;2023-12-28T14:07:40;11.27;;;2.67;;
18905;SDS011;9585;51.018;4.282;2023-12-28T14:10:07;9.55;;;2.20;;
18905;SDS011;9585;51.018;4.282;2023-12-28T14:12:35;13.95;;;2.40;;
18905;SDS011;9585;51.018;4.282;2023-12-28T14:15:03;9.82;;;2.20;;
18905;SDS011;9585;51.018;4.282;2023-12-28T14:17:32;7.00;;;2.05;;
18905;SDS011;9585;51.018;4.282;2023-12-28T14:20:00;7.70;;;2.33;;
18905;SDS011;9585;51.018;4.282;2023-12-28T14:22:29;9.38;;;1.70;;
18905;SDS011;9585;51.018;4.282;2023-12-28T14:24:59;13.73;;;2.58;;
18905;SDS011;9585;51.018;4.282;2023-12-28T14:27:28;10.18;;;2.38;;
18905;SDS011;9585;51.018;4.282;2023-12-28T14:29:57;11.70;;;2.17;;
18905;SDS011;9585;51.018;4.282;2023-12-28T14:32:28;16.20;;;2.47;;
18905;SDS011;9585;51.018;4.282;2023-12-28T14:34:57;10.30;;;2.20;;
18905;SDS011;9585;51.018;4.282;2023-12-28T14:37:24;11.57;;;2.00;;
18905;SDS011;9585;51.018;4.282;2023-12-28T14:39:52;10.90;;;2.25;;
18905;SDS011;9585;51.018;4.282;2023-12-28T14:42:24;12.73;;;2.63;;
18905;SDS011;9585;51.018;4.282;2023-12-28T14:44:52;10.68;;;2.50;;
18905;SDS011;9585;51.018;4.282;2023-12-28T14:47:19;8.80;;;1.80;;
18905;SDS011;9585;51.018;4.282;2023-12-28T14:49:47;12.27;;;2.35;;
18905;SDS011;9585;51.018;4.282;2023-12-28T14:52:22;8.75;;;2.10;;
18905;SDS011;9585;51.018;4.282;2023-12-28T14:54:50;11.05;;;2.10;;
18905;SDS011;9585;51.018;4.282;2023-12-28T14:57:19;11.85;;;1.90;;
18905;SDS011;9585;51.018;4.282;2023-12-28T14:59:49;12.05;;;1.95;;
18905;SDS011;9585;51.018;4.282;2023-12-28T15:02:16;10.07;;;2.13;;
18905;SDS011;9585;51.018;4.282;2023-12-28T15:04:44;10.07;;;2.10;;